TAM2202 SBGL-SBSV
Flight info
| Callsign | TAM2202 |
|---|---|
| Flight time | 1h 40m |
| Altitude | 37000 |
| Route | IMBAP UZ42 SIRAP DCT OSAGU DCT ZUMBA |
| Aircraft | A320/M-SDE3FGHIRWY/LB1 |
Departure
| Time | 2026-01-20 10:35 |
|---|---|
| Airport | Rio Galeão – Tom Jobim International Airport (SBGL) |
Arrival
| Time | 2026-01-20 12:15 |
|---|---|
| Airport | Deputado Luiz Eduardo Magalhães International Airport (SBSV) |
| Time | Latitude | Longitude | Altitude | Speed | Heading |
|---|---|---|---|---|---|
| 2026-01-20 10:04 | -22.81263 | -43.25048 | 22 ft | 0 kts | 350° |
| 2026-01-20 10:19 | -22.81314 | -43.25055 | 22 ft | 3 kts | 58° |
| 2026-01-20 10:20 | -22.81319 | -43.25067 | 25 ft | 0 kts | 84° |
| 2026-01-20 10:22 | -22.81318 | -43.25063 | 23 ft | 4 kts | 84° |
| 2026-01-20 10:22 | -22.81391 | -43.25026 | 22 ft | 2 kts | 174° |
| 2026-01-20 10:23 | -22.81415 | -43.25030 | 22 ft | 12 kts | 194° |
| 2026-01-20 10:23 | -22.81559 | -43.25099 | 21 ft | 14 kts | 212° |
| 2026-01-20 10:24 | -22.81754 | -43.25243 | 22 ft | 15 kts | 201° |
| 2026-01-20 10:24 | -22.81907 | -43.25100 | 26 ft | 20 kts | 121° |
| 2026-01-20 10:25 | -22.82049 | -43.24882 | 24 ft | 20 kts | 126° |
| 2026-01-20 10:25 | -22.82148 | -43.24735 | 20 ft | 28 kts | 126° |
| 2026-01-20 10:26 | -22.82532 | -43.24148 | 21 ft | 31 kts | 125° |
| 2026-01-20 10:26 | -22.82747 | -43.23827 | 21 ft | 18 kts | 124° |
| 2026-01-20 10:27 | -22.82810 | -43.23787 | 20 ft | 8 kts | 189° |
| 2026-01-20 10:27 | -22.82820 | -43.23792 | 20 ft | 0 kts | 210° |
| 2026-01-20 10:32 | -22.82835 | -43.23802 | 21 ft | 11 kts | 210° |
| 2026-01-20 10:32 | -22.82890 | -43.23882 | 19 ft | 0 kts | 294° |
| 2026-01-20 10:33 | -22.82809 | -43.24018 | 22 ft | 50 kts | 305° |
| 2026-01-20 10:34 | -22.81917 | -43.25348 | 28 ft | 159 kts | 306° |
| 2026-01-20 10:34 | -22.80622 | -43.27389 | 1174 ft | 164 kts | 293° |
| 2026-01-20 10:35 | -22.80132 | -43.28558 | 1624 ft | 180 kts | 289° |
| 2026-01-20 10:35 | -22.78974 | -43.31354 | 2270 ft | 228 kts | 291° |
| 2026-01-20 10:36 | -22.77533 | -43.34772 | 3384 ft | 264 kts | 290° |
| 2026-01-20 10:36 | -22.75173 | -43.40284 | 6143 ft | 274 kts | 292° |
| 2026-01-20 10:37 | -22.73538 | -43.44113 | 6952 ft | 283 kts | 293° |
| 2026-01-20 10:37 | -22.70521 | -43.46684 | 7025 ft | 292 kts | 351° |
| 2026-01-20 10:38 | -22.68512 | -43.46451 | 7032 ft | 294 kts | 21° |
| 2026-01-20 10:38 | -22.64750 | -43.44656 | 7037 ft | 296 kts | 24° |
| 2026-01-20 10:39 | -22.59058 | -43.41873 | 8556 ft | 304 kts | 24° |
| 2026-01-20 10:39 | -22.57126 | -43.40936 | 8862 ft | 303 kts | 24° |
| 2026-01-20 10:40 | -22.53309 | -43.39090 | 8987 ft | 300 kts | 24° |
| 2026-01-20 10:40 | -22.47516 | -43.36299 | 10424 ft | 318 kts | 22° |
| 2026-01-20 10:41 | -22.43275 | -43.34264 | 11397 ft | 341 kts | 22° |
| 2026-01-20 10:41 | -22.39098 | -43.31714 | 12987 ft | 352 kts | 38° |
| 2026-01-20 10:42 | -22.37268 | -43.29933 | 13799 ft | 356 kts | 39° |
| 2026-01-20 10:42 | -22.33561 | -43.26324 | 15086 ft | 363 kts | 39° |
| 2026-01-20 10:43 | -22.29755 | -43.22644 | 16229 ft | 372 kts | 39° |
| 2026-01-20 10:43 | -22.25863 | -43.18876 | 17325 ft | 380 kts | 39° |
| 2026-01-20 10:44 | -22.21884 | -43.15020 | 18383 ft | 388 kts | 39° |
| 2026-01-20 10:44 | -22.15799 | -43.09131 | 19900 ft | 395 kts | 39° |
| 2026-01-20 10:45 | -22.11670 | -43.05143 | 20909 ft | 401 kts | 39° |
| 2026-01-20 10:45 | -22.09585 | -43.03133 | 21411 ft | 404 kts | 39° |
| 2026-01-20 10:46 | -22.05365 | -42.99060 | 22388 ft | 410 kts | 39° |
| 2026-01-20 10:46 | -22.01081 | -42.94931 | 23311 ft | 417 kts | 39° |
| 2026-01-20 10:47 | -21.96727 | -42.90734 | 24093 ft | 423 kts | 39° |
| 2026-01-20 10:47 | -21.92344 | -42.86511 | 24826 ft | 428 kts | 39° |
| 2026-01-20 10:49 | -21.78810 | -42.73527 | 26899 ft | 441 kts | 39° |
| 2026-01-20 10:51 | -21.59596 | -42.56514 | 29544 ft | 450 kts | 25° |
| 2026-01-20 10:53 | -21.37172 | -42.43609 | 31557 ft | 462 kts | 25° |
| 2026-01-20 10:55 | -21.14630 | -42.30657 | 33932 ft | 459 kts | 26° |
| 2026-01-20 10:57 | -20.92027 | -42.17727 | 36092 ft | 462 kts | 25° |
| 2026-01-20 10:59 | -20.69290 | -42.04766 | 36967 ft | 462 kts | 25° |
| 2026-01-20 11:01 | -20.45675 | -41.94517 | 36982 ft | 459 kts | 15° |
| 2026-01-20 11:03 | -20.18525 | -41.84344 | 36981 ft | 460 kts | 16° |
| 2026-01-20 11:05 | -19.94319 | -41.75303 | 36956 ft | 461 kts | 16° |
| 2026-01-20 11:07 | -19.70069 | -41.66265 | 36945 ft | 462 kts | 16° |
| 2026-01-20 11:09 | -19.45705 | -41.57205 | 36957 ft | 465 kts | 16° |
| 2026-01-20 11:11 | -19.22343 | -41.48559 | 36966 ft | 464 kts | 16° |
| 2026-01-20 11:13 | -18.97935 | -41.39547 | 36954 ft | 465 kts | 17° |
| 2026-01-20 11:15 | -18.76471 | -41.31643 | 36954 ft | 467 kts | 17° |
| 2026-01-20 11:17 | -18.51846 | -41.22615 | 36946 ft | 471 kts | 16° |
| 2026-01-20 11:19 | -18.26966 | -41.13506 | 36943 ft | 477 kts | 16° |
| 2026-01-20 11:21 | -17.98593 | -41.03160 | 36950 ft | 482 kts | 17° |
| 2026-01-20 11:23 | -17.76733 | -40.94004 | 36961 ft | 485 kts | 22° |
| 2026-01-20 11:25 | -17.48860 | -40.81493 | 36966 ft | 485 kts | 21° |
| 2026-01-20 11:27 | -17.27108 | -40.71765 | 36972 ft | 486 kts | 21° |
| 2026-01-20 11:29 | -16.99101 | -40.59292 | 36994 ft | 486 kts | 21° |
| 2026-01-20 11:31 | -16.77345 | -40.49634 | 37009 ft | 487 kts | 22° |
| 2026-01-20 11:33 | -16.49285 | -40.37215 | 37031 ft | 487 kts | 22° |
| 2026-01-20 11:35 | -16.27512 | -40.27598 | 37026 ft | 486 kts | 22° |
| 2026-01-20 11:37 | -15.99554 | -40.15285 | 37020 ft | 484 kts | 22° |
| 2026-01-20 11:39 | -15.77830 | -40.05745 | 37011 ft | 485 kts | 22° |
| 2026-01-20 11:41 | -15.53039 | -39.94894 | 37015 ft | 483 kts | 22° |
| 2026-01-20 11:43 | -15.28246 | -39.84050 | 37004 ft | 483 kts | 22° |
| 2026-01-20 11:45 | -15.03465 | -39.73263 | 37027 ft | 484 kts | 23° |
| 2026-01-20 11:47 | -14.79240 | -39.61179 | 37023 ft | 483 kts | 27° |
| 2026-01-20 11:49 | -14.55095 | -39.48867 | 35364 ft | 481 kts | 27° |
| 2026-01-20 11:51 | -14.31551 | -39.36860 | 30788 ft | 461 kts | 27° |
| 2026-01-20 11:53 | -14.07792 | -39.24775 | 26444 ft | 369 kts | 27° |
| 2026-01-20 11:54 | -13.96365 | -39.18969 | 24183 ft | 369 kts | 27° |
| 2026-01-20 11:55 | -13.91754 | -39.16630 | 23166 ft | 370 kts | 27° |
| 2026-01-20 11:55 | -13.87141 | -39.14294 | 22237 ft | 368 kts | 26° |
| 2026-01-20 11:56 | -13.83327 | -39.12364 | 21462 ft | 367 kts | 26° |
| 2026-01-20 11:56 | -13.81036 | -39.11204 | 21006 ft | 365 kts | 26° |
| 2026-01-20 11:57 | -13.74246 | -39.07749 | 19652 ft | 361 kts | 26° |
| 2026-01-20 11:57 | -13.69796 | -39.05368 | 18755 ft | 359 kts | 34° |
| 2026-01-20 11:58 | -13.65881 | -39.02197 | 17842 ft | 357 kts | 38° |
| 2026-01-20 11:58 | -13.62066 | -38.99054 | 16917 ft | 343 kts | 38° |
| 2026-01-20 11:59 | -13.58509 | -38.96123 | 16117 ft | 317 kts | 38° |
| 2026-01-20 11:59 | -13.55093 | -38.93315 | 15353 ft | 314 kts | 37° |
| 2026-01-20 11:59 | -13.53380 | -38.91912 | 14967 ft | 315 kts | 37° |
| 2026-01-20 12:00 | -13.49951 | -38.89105 | 14209 ft | 316 kts | 37° |
| 2026-01-20 12:01 | -13.44795 | -38.84877 | 12989 ft | 315 kts | 37° |
| 2026-01-20 12:01 | -13.39685 | -38.80680 | 11784 ft | 312 kts | 37° |
| 2026-01-20 12:02 | -13.36294 | -38.77909 | 10971 ft | 310 kts | 37° |
| 2026-01-20 12:02 | -13.34606 | -38.76526 | 10555 ft | 310 kts | 37° |
| 2026-01-20 12:03 | -13.31267 | -38.73781 | 9843 ft | 304 kts | 37° |
| 2026-01-20 12:03 | -13.28035 | -38.71126 | 9244 ft | 294 kts | 37° |
| 2026-01-20 12:04 | -13.24863 | -38.68528 | 8503 ft | 289 kts | 37° |
| 2026-01-20 12:04 | -13.20197 | -38.64703 | 7427 ft | 284 kts | 37° |
| 2026-01-20 12:05 | -13.18665 | -38.63451 | 7074 ft | 281 kts | 37° |
| 2026-01-20 12:05 | -13.15632 | -38.60964 | 6289 ft | 277 kts | 37° |
| 2026-01-20 12:06 | -13.12639 | -38.58518 | 5489 ft | 272 kts | 37° |
| 2026-01-20 12:06 | -13.09685 | -38.56125 | 4690 ft | 268 kts | 37° |
| 2026-01-20 12:07 | -13.06854 | -38.53828 | 4249 ft | 248 kts | 38° |
| 2026-01-20 12:07 | -13.04171 | -38.51928 | 4031 ft | 223 kts | 21° |
| 2026-01-20 12:08 | -13.01227 | -38.51353 | 3638 ft | 210 kts | 9° |
| 2026-01-20 12:08 | -12.97330 | -38.50763 | 3132 ft | 168 kts | 10° |
| 2026-01-20 12:09 | -12.95238 | -38.50238 | 2846 ft | 148 kts | 32° |
| 2026-01-20 12:09 | -12.94123 | -38.48582 | 2589 ft | 142 kts | 75° |
| 2026-01-20 12:10 | -12.93738 | -38.46647 | 2436 ft | 136 kts | 73° |
| 2026-01-20 12:10 | -12.93550 | -38.45707 | 2314 ft | 134 kts | 73° |
| 2026-01-20 12:11 | -12.92985 | -38.42884 | 1797 ft | 136 kts | 75° |
| 2026-01-20 12:11 | -12.92796 | -38.41941 | 1616 ft | 135 kts | 75° |
| 2026-01-20 12:12 | -12.92423 | -38.40072 | 1278 ft | 133 kts | 75° |
| 2026-01-20 12:12 | -12.91865 | -38.37287 | 765 ft | 135 kts | 77° |
| 2026-01-20 12:13 | -12.91676 | -38.36344 | 615 ft | 133 kts | 76° |
| 2026-01-20 12:13 | -12.91293 | -38.34473 | 240 ft | 134 kts | 78° |
| 2026-01-20 12:14 | -12.90827 | -38.32120 | 47 ft | 50 kts | 79° |
| 2026-01-20 12:14 | -12.90784 | -38.31747 | 47 ft | 15 kts | 121° |
| 2026-01-20 12:15 | -12.90865 | -38.31700 | 52 ft | 10 kts | 181° |
| 2026-01-20 12:15 | -12.90920 | -38.31791 | 53 ft | 16 kts | 259° |
| 2026-01-20 12:16 | -12.91008 | -38.32238 | 53 ft | 41 kts | 258° |
| 2026-01-20 12:16 | -12.91181 | -38.33071 | 44 ft | 29 kts | 259° |
| 2026-01-20 12:17 | -12.91276 | -38.33144 | 44 ft | 8 kts | 208° |
| 2026-01-20 12:17 | -12.91351 | -38.33200 | 44 ft | 3 kts | 251° |
| 2026-01-20 12:18 | -12.91360 | -38.33223 | 44 ft | 0 kts | 248° |